createdAt,value
2022-09-06T00:02:20.460Z,18.82
2022-09-06T00:04:49.054Z,18.79
2022-09-06T00:07:17.032Z,18.72
2022-09-06T00:09:44.911Z,18.68
2022-09-06T00:12:12.953Z,18.72
2022-09-06T00:14:42.301Z,18.71
2022-09-06T00:17:10.135Z,18.73
2022-09-06T00:19:38.089Z,18.69
2022-09-06T00:22:06.133Z,18.76
2022-09-06T00:24:34.054Z,18.71
2022-09-06T00:27:02.029Z,18.73
2022-09-06T00:29:30.078Z,18.65
2022-09-06T00:31:59.436Z,18.66
2022-09-06T00:34:28.046Z,18.52
2022-09-06T00:36:56.392Z,18.53
2022-09-06T00:39:24.510Z,18.52
2022-09-06T00:41:52.904Z,18.54
2022-09-06T00:44:20.946Z,18.50
2022-09-06T00:46:51.766Z,18.51
2022-09-06T00:49:26.077Z,18.52
2022-09-06T00:51:56.914Z,18.36
2022-09-06T00:54:25.554Z,18.38
2022-09-06T00:56:53.736Z,18.36
2022-09-06T00:59:21.975Z,18.34
2022-09-06T01:01:50.065Z,18.39
2022-09-06T01:04:18.132Z,18.39
2022-09-06T01:06:57.429Z,18.38
2022-09-06T01:09:43.901Z,18.47
2022-09-06T01:12:25.289Z,18.43
2022-09-06T01:15:07.284Z,18.48
2022-09-06T01:17:45.717Z,18.49
2022-09-06T01:20:36.253Z,18.43
2022-09-06T01:23:43.388Z,18.38
2022-09-06T01:26:31.803Z,18.44
2022-09-06T01:29:01.507Z,18.45
2022-09-06T01:31:36.490Z,18.41
2022-09-06T01:34:20.798Z,18.43
2022-09-06T01:37:09.417Z,18.51
2022-09-06T01:39:40.758Z,18.51
2022-09-06T01:42:13.376Z,18.40
2022-09-06T01:44:45.309Z,18.51
2022-09-06T01:47:25.211Z,18.49
2022-09-06T01:50:11.748Z,18.48
2022-09-06T01:52:53.215Z,18.41
2022-09-06T01:55:30.995Z,18.36
2022-09-06T01:58:17.671Z,18.38
2022-09-06T02:00:56.617Z,18.34
2022-09-06T02:03:30.856Z,18.28
2022-09-06T02:06:05.403Z,18.31
2022-09-06T02:08:38.209Z,18.28
2022-09-06T02:11:08.229Z,18.28
2022-09-06T02:13:40.615Z,18.27
2022-09-06T02:16:15.015Z,18.24
2022-09-06T02:18:47.694Z,18.23
2022-09-06T02:21:19.685Z,18.16
2022-09-06T02:23:48.724Z,18.13
2022-09-06T02:26:22.977Z,18.09
2022-09-06T02:28:51.253Z,18.08
2022-09-06T02:31:24.872Z,18.11
2022-09-06T02:33:53.893Z,18.07
2022-09-06T02:36:22.137Z,18.16
2022-09-06T02:38:50.925Z,18.09
2022-09-06T02:41:22.687Z,18.13
2022-09-06T02:43:51.302Z,18.08
2022-09-06T02:46:20.810Z,18.07
2022-09-06T02:48:48.760Z,18.03
2022-09-06T02:51:17.024Z,18.07
2022-09-06T02:53:45.001Z,18.08
2022-09-06T02:56:12.983Z,18.13
2022-09-06T02:58:41.260Z,18.09
2022-09-06T03:01:09.363Z,18.00
2022-09-06T03:03:39.045Z,17.98
2022-09-06T03:06:07.657Z,18.00
2022-09-06T03:08:36.581Z,18.06
2022-09-06T03:11:04.695Z,18.05
2022-09-06T03:13:32.744Z,18.04
2022-09-06T03:16:01.653Z,18.09
2022-09-06T03:18:31.273Z,18.06
2022-09-06T03:21:01.027Z,18.06
2022-09-06T03:23:30.227Z,18.06
2022-09-06T03:25:58.759Z,18.04
2022-09-06T03:28:27.078Z,18.03
2022-09-06T03:30:55.400Z,18.06
2022-09-06T03:33:23.749Z,18.08
2022-09-06T03:35:54.294Z,18.05
2022-09-06T03:38:24.510Z,18.00
2022-09-06T03:40:53.386Z,17.96
2022-09-06T03:43:23.333Z,18.01
2022-09-06T03:45:53.840Z,17.97
2022-09-06T03:48:23.305Z,17.98
2022-09-06T03:50:53.147Z,17.94
2022-09-06T03:53:23.671Z,17.86
2022-09-06T03:55:53.319Z,17.91
2022-09-06T03:58:22.956Z,17.91
2022-09-06T04:00:51.400Z,17.94
2022-09-06T04:03:20.272Z,17.95
2022-09-06T04:05:48.237Z,17.84
2022-09-06T04:08:17.447Z,17.94
2022-09-06T04:10:46.747Z,17.82
2022-09-06T04:13:14.663Z,17.83
2022-09-06T04:15:47.022Z,17.86
2022-09-06T04:18:14.921Z,17.90
2022-09-06T04:20:43.540Z,17.85
2022-09-06T04:23:11.595Z,17.87
2022-09-06T04:25:39.730Z,17.82
2022-09-06T04:28:09.033Z,17.82
2022-09-06T04:30:37.324Z,17.81
2022-09-06T04:33:05.481Z,17.85
2022-09-06T04:35:33.633Z,17.74
2022-09-06T04:38:01.992Z,17.79
2022-09-06T04:40:30.111Z,17.72
2022-09-06T04:42:59.042Z,17.70
2022-09-06T04:45:28.643Z,17.68
2022-09-06T04:47:56.772Z,17.65
2022-09-06T04:50:24.756Z,17.65
2022-09-06T04:52:55.366Z,17.67
2022-09-06T04:55:23.295Z,17.69
2022-09-06T04:57:51.475Z,17.76
2022-09-06T05:00:19.999Z,17.69
2022-09-06T05:02:49.665Z,17.67
2022-09-06T05:05:17.782Z,17.60
2022-09-06T05:07:45.906Z,17.66
2022-09-06T05:10:13.930Z,17.74
2022-09-06T05:12:44.265Z,17.70
2022-09-06T05:15:13.033Z,17.70
2022-09-06T05:17:41.107Z,17.73
2022-09-06T05:20:12.807Z,17.72
2022-09-06T05:22:41.537Z,17.68
2022-09-06T05:25:11.547Z,17.76
2022-09-06T05:27:39.675Z,17.87
2022-09-06T05:30:08.663Z,17.72
2022-09-06T05:32:36.655Z,17.73
2022-09-06T05:35:05.001Z,17.82
2022-09-06T05:37:34.314Z,17.84
2022-09-06T05:40:02.383Z,17.74
2022-09-06T05:42:30.635Z,17.88
2022-09-06T05:44:58.631Z,18.00
2022-09-06T05:47:26.581Z,18.06
2022-09-06T05:49:55.389Z,18.05
2022-09-06T05:52:23.378Z,18.00
2022-09-06T05:54:52.721Z,18.03
2022-09-06T05:57:20.901Z,18.09
2022-09-06T05:59:49.193Z,18.21
2022-09-06T06:02:17.205Z,18.21
2022-09-06T06:04:45.366Z,18.17
2022-09-06T06:07:13.313Z,18.24
2022-09-06T06:09:41.426Z,18.17
2022-09-06T06:12:11.270Z,18.09
2022-09-06T06:14:39.529Z,18.24
2022-09-06T06:17:07.794Z,18.26
2022-09-06T06:19:38.588Z,18.23
2022-09-06T06:22:06.598Z,18.33
2022-09-06T06:24:34.540Z,18.37
2022-09-06T06:27:02.678Z,18.38
2022-09-06T06:29:32.114Z,18.33
2022-09-06T06:32:00.297Z,18.31
2022-09-06T06:34:28.454Z,18.35
2022-09-06T06:36:56.376Z,18.43
2022-09-06T06:39:24.326Z,18.46
2022-09-06T06:41:52.361Z,18.52
2022-09-06T06:44:20.277Z,18.40
2022-09-06T06:46:49.562Z,18.40
2022-09-06T06:49:17.738Z,18.48
2022-09-06T06:51:45.709Z,18.38
2022-09-06T06:54:13.600Z,18.39
2022-09-06T06:56:42.462Z,18.38
2022-09-06T06:59:10.538Z,18.37
2022-09-06T07:01:39.208Z,18.41
2022-09-06T07:04:10.679Z,18.42
2022-09-06T07:12:26.197Z,18.56
2022-09-06T07:14:54.267Z,18.60
2022-09-06T07:17:22.194Z,18.84
2022-09-06T07:22:40.425Z,19.28
2022-09-06T07:25:09.745Z,19.10
2022-09-06T07:27:53.057Z,19.05
2022-09-06T07:30:21.039Z,19.35
2022-09-06T07:32:49.259Z,19.32
2022-09-06T07:35:20.629Z,18.99
2022-09-06T07:37:56.052Z,18.92
2022-09-06T07:40:24.411Z,18.84
2022-09-06T07:42:52.492Z,18.93
2022-09-06T07:45:20.687Z,19.12
2022-09-06T07:53:16.734Z,19.14
2022-09-06T07:55:49.746Z,19.15
2022-09-06T07:58:17.809Z,19.28
2022-09-06T08:00:45.838Z,19.36
2022-09-06T08:03:13.833Z,19.30
2022-09-06T08:11:20.117Z,19.46
2022-09-06T08:13:51.378Z,19.50
2022-09-06T08:16:20.304Z,19.70
2022-09-06T08:18:52.604Z,19.87
2022-09-06T08:21:23.987Z,20.07
2022-09-06T08:23:53.502Z,20.14
2022-09-06T08:26:23.946Z,20.22
2022-09-06T08:28:55.876Z,20.16
2022-09-06T08:31:24.100Z,20.38
2022-09-06T08:33:53.019Z,20.13
2022-09-06T08:36:22.655Z,20.21
2022-09-06T08:38:50.945Z,20.24
2022-09-06T08:41:25.725Z,20.55
2022-09-06T08:46:55.052Z,21.21
2022-09-06T08:49:23.833Z,21.23
2022-09-06T08:52:18.131Z,21.48
2022-09-06T08:54:54.416Z,21.09
2022-09-06T08:57:40.106Z,20.66
2022-09-06T09:00:12.673Z,20.63
2022-09-06T09:02:46.664Z,20.77
2022-09-06T09:05:25.860Z,20.93
2022-09-06T09:08:03.618Z,20.89
2022-09-06T09:10:36.100Z,20.92
2022-09-06T09:13:06.014Z,20.77
2022-09-06T09:15:40.362Z,21.01
2022-09-06T09:18:09.120Z,20.82
2022-09-06T09:20:39.108Z,20.67
2022-09-06T09:23:08.513Z,20.73
2022-09-06T09:25:39.685Z,20.62
2022-09-06T09:28:17.681Z,20.56
2022-09-06T09:30:49.723Z,20.43
2022-09-06T09:33:27.349Z,20.43
2022-09-06T09:35:56.352Z,20.38
2022-09-06T09:38:28.570Z,20.20
2022-09-06T09:40:58.902Z,20.22
2022-09-06T09:43:29.661Z,20.27
2022-09-06T09:46:16.107Z,20.39
2022-09-06T09:48:49.728Z,20.40
2022-09-06T09:51:27.053Z,20.36
2022-09-06T09:53:58.899Z,20.28
2022-09-06T09:56:35.319Z,20.44
2022-09-06T09:59:04.807Z,20.11
2022-09-06T10:01:34.223Z,20.22
2022-09-06T10:07:08.582Z,20.12
2022-09-06T10:09:40.848Z,20.27
2022-09-06T10:12:09.138Z,20.32
2022-09-06T10:14:43.279Z,20.13
2022-09-06T10:17:20.650Z,20.07
2022-09-06T10:19:49.004Z,20.08
2022-09-06T10:22:29.501Z,20.28
2022-09-06T10:25:29.734Z,20.43
2022-09-06T10:28:22.860Z,20.36
2022-09-06T10:35:05.711Z,20.62
2022-09-06T10:37:46.024Z,20.81
2022-09-06T10:40:28.031Z,20.72
2022-09-06T10:42:59.188Z,20.82
2022-09-06T10:45:39.555Z,20.79
2022-09-06T10:48:15.052Z,20.73
2022-09-06T10:50:49.421Z,20.77
2022-09-06T10:53:30.806Z,20.77
2022-09-06T10:56:06.414Z,20.69
2022-09-06T11:01:36.073Z,20.84
2022-09-06T11:04:12.802Z,20.89
2022-09-06T11:06:46.232Z,20.99
2022-09-06T11:09:21.865Z,21.25
2022-09-06T11:11:56.703Z,21.16
2022-09-06T11:14:28.327Z,21.19
2022-09-06T11:17:03.495Z,21.23
2022-09-06T11:19:39.685Z,21.17
2022-09-06T11:22:45.815Z,21.27
2022-09-06T11:25:42.548Z,21.30
2022-09-06T11:28:17.106Z,21.51
2022-09-06T11:30:47.891Z,21.49
2022-09-06T11:33:25.938Z,21.56
2022-09-06T11:35:55.531Z,21.69
2022-09-06T11:38:27.760Z,21.53
2022-09-06T11:41:02.118Z,21.55
2022-09-06T11:43:49.916Z,21.65
2022-09-06T11:46:54.167Z,21.56
2022-09-06T11:49:37.433Z,21.68
2022-09-06T11:52:43.972Z,21.82
2022-09-06T11:55:14.227Z,21.68
2022-09-06T11:57:44.098Z,21.72
2022-09-06T12:00:21.049Z,21.80
2022-09-06T12:02:49.012Z,21.91
2022-09-06T12:05:25.773Z,21.98
2022-09-06T12:08:36.439Z,21.96
2022-09-06T12:11:30.848Z,21.94
2022-09-06T12:14:05.698Z,21.89
2022-09-06T12:17:11.694Z,21.98
2022-09-06T12:19:46.072Z,22.05
2022-09-06T12:23:02.764Z,21.82
2022-09-06T12:25:58.501Z,21.85
2022-09-06T12:28:45.277Z,21.77
2022-09-06T12:31:38.120Z,21.68
2022-09-06T12:34:13.926Z,21.86
2022-09-06T12:37:01.357Z,21.87
2022-09-06T12:39:29.601Z,21.90
2022-09-06T12:42:00.787Z,21.83
2022-09-06T12:44:33.336Z,21.84
2022-09-06T12:47:07.620Z,21.83
2022-09-06T12:49:35.957Z,21.68
2022-09-06T12:52:12.765Z,21.76
2022-09-06T12:54:46.872Z,21.86
2022-09-06T12:57:19.108Z,21.87
2022-09-06T12:59:53.713Z,21.91
2022-09-06T13:02:27.996Z,21.83
2022-09-06T13:05:02.499Z,21.88
2022-09-06T13:07:35.349Z,22.05
2022-09-06T13:10:04.117Z,22.09
2022-09-06T13:12:35.423Z,22.18
2022-09-06T13:15:08.905Z,22.31
2022-09-06T13:17:38.400Z,22.41
2022-09-06T13:20:14.802Z,22.44
2022-09-06T13:22:46.211Z,22.35
2022-09-06T13:25:25.551Z,22.19
2022-09-06T13:27:58.050Z,22.11
2022-09-06T13:30:38.637Z,22.12
2022-09-06T13:33:08.930Z,22.19
2022-09-06T13:35:39.197Z,22.21
2022-09-06T13:38:34.409Z,22.20
2022-09-06T13:41:13.479Z,22.18
2022-09-06T13:43:44.966Z,22.15
2022-09-06T13:46:13.200Z,22.10
2022-09-06T13:48:43.107Z,22.19
2022-09-06T13:51:11.331Z,22.07
2022-09-06T13:53:40.613Z,22.10
2022-09-06T13:56:09.091Z,22.15
2022-09-06T13:58:37.043Z,22.12
2022-09-06T14:01:08.819Z,22.08
2022-09-06T14:03:39.234Z,22.07
2022-09-06T14:06:08.338Z,22.09
2022-09-06T14:08:56.320Z,21.95
2022-09-06T14:11:26.622Z,21.86
2022-09-06T14:13:55.043Z,21.84
2022-09-06T14:16:23.079Z,21.70
2022-09-06T14:18:52.098Z,21.64
2022-09-06T14:21:20.005Z,21.76
2022-09-06T14:23:51.758Z,21.74
2022-09-06T14:26:21.192Z,21.71
2022-09-06T14:28:51.070Z,21.71
2022-09-06T14:31:21.205Z,21.69
2022-09-06T14:33:49.800Z,21.67
2022-09-06T14:36:20.102Z,21.78
2022-09-06T14:38:49.071Z,21.86
2022-09-06T14:41:18.970Z,21.99
2022-09-06T14:43:53.351Z,22.01
2022-09-06T14:46:23.124Z,22.04
2022-09-06T14:48:58.217Z,21.96
2022-09-06T14:51:26.715Z,22.07
2022-09-06T14:53:57.343Z,22.14
2022-09-06T14:56:26.117Z,22.16
2022-09-06T14:58:57.575Z,22.24
2022-09-06T15:01:28.728Z,22.34
2022-09-06T15:03:58.507Z,22.36
2022-09-06T15:06:28.323Z,22.37
2022-09-06T15:08:59.444Z,22.35
2022-09-06T15:11:34.515Z,22.45
2022-09-06T15:14:05.658Z,22.47
2022-09-06T15:16:34.334Z,22.59
2022-09-06T15:19:03.111Z,22.66
2022-09-06T15:21:32.565Z,22.82
2022-09-06T15:24:02.061Z,22.64
2022-09-06T15:26:30.629Z,22.70
2022-09-06T15:28:59.117Z,22.63
2022-09-06T15:31:28.575Z,22.69
2022-09-06T15:33:58.122Z,22.69
2022-09-06T15:36:27.611Z,22.72
2022-09-06T15:38:59.573Z,22.66
2022-09-06T15:41:29.721Z,22.57
2022-09-06T15:43:59.605Z,22.62
2022-09-06T15:46:53.253Z,22.59
2022-09-06T15:49:27.470Z,22.63
2022-09-06T15:51:56.465Z,22.68
2022-09-06T15:54:45.183Z,22.66
2022-09-06T15:57:12.674Z,22.53
2022-09-06T15:59:41.202Z,22.59
2022-09-06T16:02:11.124Z,22.60
2022-09-06T16:04:39.472Z,22.56
2022-09-06T16:07:07.884Z,22.66
2022-09-06T16:09:35.821Z,22.71
2022-09-06T16:12:04.302Z,22.75
2022-09-06T16:14:32.484Z,22.66
2022-09-06T16:17:00.462Z,22.63
2022-09-06T16:19:30.282Z,22.77
2022-09-06T16:21:58.951Z,22.68
2022-09-06T16:24:26.971Z,22.70
2022-09-06T16:26:54.991Z,22.69
2022-09-06T16:29:22.857Z,22.83
2022-09-06T16:31:52.781Z,22.83
2022-09-06T16:34:20.855Z,22.79
2022-09-06T16:36:50.597Z,22.69
2022-09-06T16:39:18.503Z,22.71
2022-09-06T16:41:48.233Z,22.77
2022-09-06T16:44:18.510Z,22.80
2022-09-06T16:46:47.580Z,22.78
2022-09-06T16:49:17.093Z,22.68
2022-09-06T16:51:45.721Z,22.60
2022-09-06T16:54:15.710Z,22.59
2022-09-06T16:56:44.394Z,22.53
2022-09-06T16:59:12.903Z,22.58
2022-09-06T17:01:42.021Z,22.49
2022-09-06T17:04:10.422Z,22.46
2022-09-06T17:06:44.705Z,22.34
2022-09-06T17:09:15.971Z,22.32
2022-09-06T17:11:43.955Z,22.34
2022-09-06T17:14:12.220Z,22.30
2022-09-06T17:16:57.923Z,22.25
2022-09-06T17:19:25.989Z,22.25
2022-09-06T17:21:54.094Z,22.14
2022-09-06T17:24:23.664Z,22.07
2022-09-06T17:26:51.830Z,22.01
2022-09-06T17:29:20.289Z,21.93
2022-09-06T17:31:49.712Z,21.84
2022-09-06T17:34:17.850Z,21.81
2022-09-06T17:36:45.934Z,21.78
2022-09-06T17:39:19.583Z,21.74
2022-09-06T17:41:54.270Z,21.72
2022-09-06T17:44:25.500Z,21.66
2022-09-06T17:47:12.804Z,21.54
2022-09-06T17:49:41.565Z,21.47
2022-09-06T17:52:09.736Z,21.41
2022-09-06T17:54:37.570Z,21.42
2022-09-06T17:57:06.990Z,21.37
2022-09-06T17:59:36.023Z,21.31
2022-09-06T18:02:04.824Z,21.32
2022-09-06T18:04:32.754Z,21.27
2022-09-06T18:07:00.646Z,21.17
2022-09-06T18:09:28.985Z,21.09
2022-09-06T18:11:57.077Z,20.99
2022-09-06T18:14:28.526Z,21.02
2022-09-06T18:16:56.848Z,20.98
2022-09-06T18:19:26.176Z,20.92
2022-09-06T18:21:55.076Z,20.92
2022-09-06T18:24:23.085Z,20.89
2022-09-06T18:26:50.914Z,20.83
2022-09-06T18:29:18.789Z,20.81
2022-09-06T18:31:48.142Z,20.78
2022-09-06T18:34:16.983Z,20.79
2022-09-06T18:36:44.908Z,20.73
2022-09-06T18:39:13.388Z,20.67
2022-09-06T18:41:59.151Z,20.62
2022-09-06T18:44:31.862Z,20.64
2022-09-06T18:47:02.761Z,20.57
2022-09-06T18:49:30.869Z,20.55
2022-09-06T18:51:59.013Z,20.48
2022-09-06T18:54:27.076Z,20.45
2022-09-06T18:56:55.588Z,20.41
2022-09-06T18:59:23.577Z,20.41
2022-09-06T19:01:51.708Z,20.44
2022-09-06T19:04:21.203Z,20.44
2022-09-06T19:06:49.063Z,20.42
2022-09-06T19:09:18.045Z,20.42
2022-09-06T19:11:49.421Z,20.34
2022-09-06T19:14:17.259Z,20.31
2022-09-06T19:16:45.431Z,20.25
2022-09-06T19:19:13.614Z,20.20
2022-09-06T19:21:42.940Z,20.17
2022-09-06T19:24:12.551Z,20.10
2022-09-06T19:26:42.756Z,20.07
2022-09-06T19:29:14.243Z,20.06
2022-09-06T19:31:42.549Z,20.06
2022-09-06T19:34:12.308Z,20.05
2022-09-06T19:36:40.480Z,20.00
2022-09-06T19:39:11.825Z,19.95
2022-09-06T19:41:42.983Z,19.95
2022-09-06T19:44:12.604Z,19.93
2022-09-06T19:46:45.635Z,19.89
2022-09-06T19:49:15.316Z,19.86
2022-09-06T19:51:45.274Z,19.86
2022-09-06T19:54:15.606Z,19.75
2022-09-06T19:56:44.252Z,19.79
2022-09-06T19:59:13.281Z,19.78
2022-09-06T20:01:43.146Z,19.72
2022-09-06T20:04:12.827Z,19.73
2022-09-06T20:06:40.894Z,19.74
2022-09-06T20:09:11.136Z,19.70
2022-09-06T20:11:41.617Z,19.68
2022-09-06T20:14:10.056Z,19.66
2022-09-06T20:16:41.500Z,19.62
2022-09-06T20:19:10.651Z,19.63
2022-09-06T20:21:38.538Z,19.64
2022-09-06T20:24:06.681Z,19.57
2022-09-06T20:26:34.657Z,19.49
2022-09-06T20:29:06.803Z,19.49
2022-09-06T20:31:36.589Z,19.48
2022-09-06T20:34:06.397Z,19.42
2022-09-06T20:36:34.515Z,19.45
2022-09-06T20:39:03.243Z,19.44
2022-09-06T20:41:31.595Z,19.44
2022-09-06T20:44:00.816Z,19.41
2022-09-06T20:46:32.429Z,19.45
2022-09-06T20:49:04.421Z,19.42
2022-09-06T20:51:34.190Z,19.38
2022-09-06T20:54:03.489Z,19.35
2022-09-06T20:56:33.249Z,19.28
2022-09-06T20:59:03.107Z,19.26
2022-09-06T21:01:35.135Z,19.16
2022-09-06T21:04:05.490Z,19.21
2022-09-06T21:06:35.678Z,19.15
2022-09-06T21:09:05.080Z,19.16
2022-09-06T21:11:33.051Z,19.10
2022-09-06T21:14:01.056Z,19.15
2022-09-06T21:16:30.618Z,19.09
2022-09-06T21:19:01.732Z,19.09
2022-09-06T21:21:32.174Z,19.05
2022-09-06T21:24:01.731Z,19.01
2022-09-06T21:26:30.168Z,19.00
2022-09-06T21:28:58.867Z,18.89
2022-09-06T21:31:28.674Z,18.95
2022-09-06T21:33:58.183Z,18.92
2022-09-06T21:36:30.006Z,18.86
2022-09-06T21:38:59.415Z,18.90
2022-09-06T21:41:28.433Z,18.92
2022-09-06T21:43:58.354Z,18.88
2022-09-06T21:46:32.917Z,18.88
2022-09-06T21:49:02.965Z,18.87
2022-09-06T21:51:33.007Z,18.82
2022-09-06T21:54:03.734Z,18.78
2022-09-06T21:56:32.349Z,18.70
2022-09-06T21:59:00.695Z,18.77
2022-09-06T22:01:31.724Z,18.81
2022-09-06T22:04:00.259Z,18.78
2022-09-06T22:06:29.936Z,18.78
2022-09-06T22:09:01.257Z,18.81
2022-09-06T22:11:32.508Z,18.84
2022-09-06T22:14:01.478Z,18.82
2022-09-06T22:16:31.108Z,18.74
2022-09-06T22:18:59.235Z,18.74
2022-09-06T22:21:27.509Z,18.74
2022-09-06T22:23:57.399Z,18.73
2022-09-06T22:26:28.288Z,18.71
2022-09-06T22:28:58.120Z,18.65
2022-09-06T22:31:27.858Z,18.71
2022-09-06T22:33:56.417Z,18.74
2022-09-06T22:36:25.527Z,18.67
2022-09-06T22:38:57.484Z,18.67
2022-09-06T22:41:28.592Z,18.68
2022-09-06T22:43:56.617Z,18.65
2022-09-06T22:46:24.859Z,18.64
2022-09-06T22:48:53.155Z,18.56
2022-09-06T22:51:21.026Z,18.58
2022-09-06T22:53:49.195Z,18.60
2022-09-06T22:56:17.431Z,18.53
2022-09-06T22:58:47.899Z,18.55
2022-09-06T23:01:17.260Z,18.56
2022-09-06T23:03:47.984Z,18.55
2022-09-06T23:06:16.037Z,18.57
2022-09-06T23:08:44.632Z,18.58
2022-09-06T23:11:14.118Z,18.55
2022-09-06T23:13:43.639Z,18.38
2022-09-06T23:16:17.210Z,18.40
2022-09-06T23:18:46.137Z,18.42
2022-09-06T23:21:17.021Z,18.40
2022-09-06T23:23:45.148Z,18.41
2022-09-06T23:26:15.123Z,18.39
2022-09-06T23:28:43.711Z,18.39
2022-09-06T23:31:14.816Z,18.37
2022-09-06T23:33:43.129Z,18.41
2022-09-06T23:36:12.739Z,18.42
2022-09-06T23:38:42.552Z,18.41
2022-09-06T23:41:10.834Z,18.40
2022-09-06T23:43:39.040Z,18.39
2022-09-06T23:46:07.060Z,18.41
2022-09-06T23:48:37.440Z,18.37
2022-09-06T23:51:05.498Z,18.35
2022-09-06T23:53:33.969Z,18.35
2022-09-06T23:56:02.021Z,18.37
2022-09-06T23:58:30.031Z,18.35
